Time;durP1;ratioP1;P1;durP2;ratioP2;P2;SDS_P1;SDS_P2;PMS_P1;PMS_P2;Temp;Humidity;BMP_temperature;BMP_pressure;BME280_temperature;BME280_humidity;BME280_pressure;Samples;Min_cycle;Max_cycle;Signal;HPM_P1;HPM_P2
2023/06/18 00:00:17;;;;;;;10.10;4.83;;;;;;;-145.69;nan;51878.03;5075907;28;20657;-78
2023/06/18 00:02:52;;;;;;;11.13;4.87;;;;;;;-145.69;nan;51899.81;5075684;28;20203;-77
2023/06/18 00:05:21;;;;;;;8.00;4.97;;;;;;;-145.69;nan;51903.78;5076299;28;20244;-78
2023/06/18 00:07:48;;;;;;;9.50;5.13;;;;;;;-145.69;nan;51913.69;5075333;28;20484;-77
2023/06/18 00:10:16;;;;;;;8.67;4.97;;;;;;;-145.69;nan;51911.69;5075637;28;20396;-77
2023/06/18 00:12:44;;;;;;;7.40;5.00;;;;;;;-145.69;nan;51905.75;5075794;28;20256;-77
2023/06/18 00:15:11;;;;;;;7.07;4.60;;;;;;;-145.69;nan;51899.81;5075821;28;20226;-78
2023/06/18 00:17:37;;;;;;;8.40;5.07;;;;;;;-145.69;nan;51901.78;5076068;28;20202;-77
2023/06/18 00:20:05;;;;;;;7.27;4.30;;;;;;;-145.69;nan;51905.75;5075890;28;20213;-77
2023/06/18 00:22:31;;;;;;;7.70;5.00;;;;;;;-145.69;nan;51897.84;5075086;28;20580;-77
2023/06/18 00:24:58;;;;;;;7.90;4.93;;;;;;;-145.69;nan;51913.69;5075641;28;20202;-78
2023/06/18 00:27:26;;;;;;;8.37;5.30;;;;;;;-145.69;nan;51901.78;5075185;28;20191;-77
2023/06/18 00:29:52;;;;;;;8.57;4.97;;;;;;;-145.69;nan;51887.94;5075633;28;20199;-77
2023/06/18 00:32:20;;;;;;;7.80;4.50;;;;;;;-145.69;nan;51927.53;5075574;28;20202;-77
2023/06/18 00:34:53;;;;;;;8.37;4.80;;;;;;;-145.69;nan;51901.78;5075749;28;20198;-77
2023/06/18 00:37:20;;;;;;;12.80;4.77;;;;;;;-145.69;nan;51905.75;5075555;28;20206;-77
2023/06/18 00:39:47;;;;;;;9.80;5.30;;;;;;;-145.69;nan;51893.88;5075117;28;20222;-77
2023/06/18 00:42:15;;;;;;;8.17;4.67;;;;;;;-145.69;nan;51887.94;5075199;28;20210;-77
2023/06/18 00:44:43;;;;;;;9.40;4.67;;;;;;;-145.69;nan;51925.56;5075633;28;20210;-77
2023/06/18 00:47:12;;;;;;;9.20;4.90;;;;;;;-145.69;nan;51907.72;5075618;28;20195;-77
2023/06/18 00:49:42;;;;;;;6.40;4.40;;;;;;;-145.69;nan;51935.47;5071781;28;20292;-77
2023/06/18 00:52:12;;;;;;;9.60;4.57;;;;;;;-145.69;nan;51929.50;5074800;28;20252;-77
2023/06/18 00:54:41;;;;;;;7.50;4.50;;;;;;;-145.69;nan;51911.69;5075205;28;20206;-77
2023/06/18 00:57:09;;;;;;;8.87;4.70;;;;;;;-145.69;nan;51939.41;5075103;28;20238;-77
2023/06/18 00:59:37;;;;;;;6.20;4.30;;;;;;;-145.69;nan;51933.47;5093804;28;20234;-77
2023/06/18 01:02:07;;;;;;;9.40;5.63;;;;;;;-145.69;nan;51919.63;5079626;28;20614;-77
2023/06/18 01:04:35;;;;;;;7.53;4.60;;;;;;;-145.69;nan;51885.94;5075098;28;20202;-77
2023/06/18 01:07:04;;;;;;;7.93;4.33;;;;;;;-145.69;nan;51919.63;5074962;28;20248;-77
2023/06/18 01:09:31;;;;;;;7.73;4.30;;;;;;;-145.69;nan;51891.88;5073825;28;20214;-77
2023/06/18 01:12:00;;;;;;;7.10;4.23;;;;;;;-145.69;nan;51909.72;5074663;28;20194;-77
2023/06/18 01:14:37;;;;;;;10.30;4.60;;;;;;;-145.69;nan;51897.84;5074594;28;20249;-76
2023/06/18 01:17:07;;;;;;;8.97;5.30;;;;;;;-145.69;nan;51915.66;5074269;28;20202;-76
2023/06/18 01:19:44;;;;;;;8.50;4.90;;;;;;;-145.69;nan;51925.56;5074478;28;20226;-77
2023/06/18 01:22:20;;;;;;;11.67;4.50;;;;;;;-145.69;nan;51923.56;5075011;28;20622;-77
2023/06/18 01:24:51;;;;;;;9.27;4.57;;;;;;;-145.69;nan;51917.63;5074402;28;20672;-76
2023/06/18 01:27:21;;;;;;;9.27;5.00;;;;;;;-145.69;nan;51893.88;5074729;28;20207;-77
2023/06/18 01:29:51;;;;;;;7.40;4.77;;;;;;;-145.69;nan;51907.72;5074422;28;20206;-76
2023/06/18 01:32:23;;;;;;;7.63;4.80;;;;;;;-145.69;nan;51913.69;5074640;28;20221;-76
2023/06/18 01:34:53;;;;;;;13.10;4.90;;;;;;;-145.69;nan;51933.47;5074524;28;20202;-77
2023/06/18 01:37:35;;;;;;;8.47;4.77;;;;;;;-145.69;nan;51921.59;5074732;28;20211;-77
2023/06/18 01:40:19;;;;;;;11.80;5.53;;;;;;;-145.69;nan;51925.56;5074106;28;20222;-77
2023/06/18 01:42:54;;;;;;;11.33;5.13;;;;;;;-145.69;nan;51905.75;5073827;28;20210;-77
2023/06/18 01:45:25;;;;;;;9.87;4.77;;;;;;;-145.69;nan;51895.84;5074305;28;20201;-76
2023/06/18 01:47:56;;;;;;;10.03;4.73;;;;;;;-145.69;nan;51933.47;5074251;28;20900;-77
2023/06/18 01:50:27;;;;;;;8.70;5.17;;;;;;;-145.69;nan;51921.59;5074284;28;20202;-77
2023/06/18 01:52:59;;;;;;;8.77;5.00;;;;;;;-145.69;nan;51882.00;5074031;28;20203;-77
2023/06/18 01:55:28;;;;;;;8.27;4.80;;;;;;;-145.69;nan;51882.00;5074330;28;20214;-77
2023/06/18 01:58:01;;;;;;;8.13;4.77;;;;;;;-145.69;nan;51953.28;5074095;28;20287;-77
2023/06/18 02:00:27;;;;;;;7.50;4.57;;;;;;;-145.69;nan;51921.59;5073592;28;20272;-77
2023/06/18 02:02:58;;;;;;;8.33;4.43;;;;;;;-145.69;nan;51919.63;5073666;28;20660;-77
2023/06/18 02:05:25;;;;;;;8.20;5.13;;;;;;;-145.69;nan;51907.72;5073304;28;20522;-77
2023/06/18 02:07:51;;;;;;;11.40;5.10;;;;;;;-145.69;nan;51911.69;5073863;28;20207;-76
2023/06/18 02:10:18;;;;;;;8.97;4.93;;;;;;;-145.69;nan;51909.72;5072948;28;20680;-76
2023/06/18 02:12:45;;;;;;;10.40;4.50;;;;;;;-145.69;nan;51945.34;5053961;28;20202;-76
2023/06/18 02:15:11;;;;;;;6.80;4.53;;;;;;;-145.69;nan;51923.56;5053826;28;20654;-76
2023/06/18 02:17:38;;;;;;;7.93;4.50;;;;;;;-145.69;nan;51937.44;5053505;28;20206;-76
2023/06/18 02:20:10;;;;;;;7.83;4.53;;;;;;;-145.69;nan;51887.94;5053202;28;20239;-76
2023/06/18 02:22:36;;;;;;;13.57;4.70;;;;;;;-145.69;nan;51945.34;5057625;28;20260;-77
2023/06/18 02:25:05;;;;;;;7.97;4.70;;;;;;;-145.69;nan;51917.63;5073462;28;20191;-75
2023/06/18 02:27:32;;;;;;;8.60;4.73;;;;;;;-145.69;nan;51923.56;5073166;28;20617;-76
2023/06/18 02:30:01;;;;;;;9.27;4.30;;;;;;;-145.69;nan;51905.75;5073473;28;20207;-76
2023/06/18 02:32:36;;;;;;;7.97;4.90;;;;;;;-145.69;nan;51931.50;5073229;28;20233;-77
2023/06/18 02:35:03;;;;;;;8.43;5.17;;;;;;;-145.69;nan;51925.56;5073525;28;20301;-77
2023/06/18 02:37:31;;;;;;;8.23;5.07;;;;;;;-145.69;nan;51913.69;5073007;28;20225;-76
2023/06/18 02:39:58;;;;;;;8.67;4.50;;;;;;;-145.69;nan;51931.50;5072842;28;20697;-77
2023/06/18 02:42:26;;;;;;;7.63;4.67;;;;;;;-145.69;nan;51911.69;5062495;28;20222;-77
2023/06/18 02:44:54;;;;;;;7.47;4.80;;;;;;;-145.69;nan;51903.78;5052985;28;20234;-76
2023/06/18 02:47:21;;;;;;;9.53;4.87;;;;;;;-145.69;nan;51897.84;5052835;28;20199;-77
2023/06/18 02:49:47;;;;;;;9.93;4.97;;;;;;;-145.69;nan;51945.34;5053023;28;20203;-77
2023/06/18 02:52:13;;;;;;;6.97;4.83;;;;;;;-145.69;nan;51927.53;5054132;28;20253;-77
2023/06/18 02:54:44;;;;;;;8.87;4.90;;;;;;;-145.69;nan;51953.28;5072929;28;20271;-76
2023/06/18 02:57:11;;;;;;;8.03;4.87;;;;;;;-145.69;nan;51961.19;5073295;28;20222;-76
2023/06/18 02:59:37;;;;;;;10.20;4.80;;;;;;;-145.69;nan;51905.75;5072777;28;20720;-76
2023/06/18 03:02:07;;;;;;;9.13;4.33;;;;;;;-145.69;nan;51957.25;5072820;28;20252;-76
2023/06/18 03:04:36;;;;;;;8.47;5.13;;;;;;;-145.69;nan;51909.72;5072854;28;20213;-76
2023/06/18 03:07:08;;;;;;;8.47;5.13;;;;;;;-145.69;nan;51923.56;5072878;28;20221;-76
2023/06/18 03:09:37;;;;;;;8.40;4.10;;;;;;;-145.69;nan;51893.88;5065195;28;20199;-77
2023/06/18 03:12:06;;;;;;;8.87;4.50;;;;;;;-145.69;nan;51917.63;5072569;28;20195;-77
2023/06/18 03:14:35;;;;;;;6.97;3.90;;;;;;;-145.69;nan;51953.28;5072987;28;20207;-76
2023/06/18 03:17:01;;;;;;;8.63;4.90;;;;;;;-145.69;nan;51925.56;5072924;28;20202;-77
2023/06/18 03:19:28;;;;;;;9.23;4.70;;;;;;;-145.69;nan;51945.34;5072699;28;20272;-76
2023/06/18 03:21:54;;;;;;;7.10;4.83;;;;;;;-145.69;nan;51911.69;5072521;28;20194;-76
2023/06/18 03:24:24;;;;;;;9.60;5.10;;;;;;;-145.69;nan;51919.63;5071903;28;20434;-76
2023/06/18 03:26:50;;;;;;;9.83;5.37;;;;;;;-145.69;nan;51905.75;5072593;28;20195;-76
2023/06/18 03:29:18;;;;;;;8.10;4.87;;;;;;;-145.69;nan;51925.56;5072755;28;20256;-76
2023/06/18 03:31:46;;;;;;;9.83;4.60;;;;;;;-145.69;nan;51907.72;5072746;28;20198;-76
2023/06/18 03:34:14;;;;;;;9.23;4.90;;;;;;;-145.69;nan;51915.66;5075997;28;20202;-76
2023/06/18 03:36:41;;;;;;;8.43;4.73;;;;;;;-145.69;nan;51903.78;5076307;28;20289;-76
2023/06/18 03:39:08;;;;;;;9.00;4.30;;;;;;;-145.69;nan;51893.88;5076629;28;20264;-76
2023/06/18 03:41:35;;;;;;;7.97;5.33;;;;;;;-145.69;nan;51901.78;5076599;28;20205;-76
2023/06/18 03:44:02;;;;;;;8.10;4.53;;;;;;;-145.69;nan;51961.19;5076222;28;20202;-76
2023/06/18 03:46:33;;;;;;;9.90;4.70;;;;;;;-145.69;nan;51901.78;5076510;28;20716;-75
2023/06/18 03:48:59;;;;;;;8.30;4.47;;;;;;;-145.69;nan;51907.72;5075988;28;20272;-75
2023/06/18 03:51:26;;;;;;;7.83;5.10;;;;;;;-145.69;nan;51931.50;5076296;28;20209;-76
2023/06/18 03:53:53;;;;;;;6.40;4.40;;;;;;;-145.69;nan;51957.25;5075848;28;20194;-76
2023/06/18 03:56:23;;;;;;;8.23;4.97;;;;;;;-145.69;nan;51911.69;5076338;28;20207;-76
2023/06/18 03:58:52;;;;;;;7.47;4.63;;;;;;;-145.69;nan;51935.47;5075348;28;20290;-76
2023/06/18 04:01:19;;;;;;;12.30;5.00;;;;;;;-145.69;nan;51925.56;5076247;28;20680;-76
2023/06/18 04:03:46;;;;;;;8.30;4.60;;;;;;;-145.69;nan;51951.28;5075913;28;20203;-76
2023/06/18 04:06:13;;;;;;;7.93;4.70;;;;;;;-145.69;nan;51923.56;5076093;28;20199;-77
2023/06/18 04:08:41;;;;;;;6.97;4.33;;;;;;;-145.69;nan;51913.69;5075557;28;20599;-77
2023/06/18 04:11:08;;;;;;;12.17;4.80;;;;;;;-145.69;nan;51905.75;5075808;28;20203;-77
2023/06/18 04:13:35;;;;;;;6.60;4.40;;;;;;;-145.69;nan;51923.56;5075836;28;20260;-77
2023/06/18 04:16:05;;;;;;;10.67;5.07;;;;;;;-145.69;nan;51897.84;5075510;28;20207;-77
2023/06/18 04:18:31;;;;;;;7.13;4.57;;;;;;;-145.69;nan;51927.53;5075617;28;20195;-76
2023/06/18 04:21:11;;;;;;;8.23;4.57;;;;;;;-145.69;nan;51889.91;5075550;28;20284;-76
2023/06/18 04:23:38;;;;;;;8.60;4.80;;;;;;;-145.69;nan;51903.78;5075955;28;20206;-77
2023/06/18 04:26:04;;;;;;;9.23;4.93;;;;;;;-145.69;nan;51925.56;5075650;28;20252;-76
2023/06/18 04:28:31;;;;;;;7.83;4.53;;;;;;;-145.69;nan;51923.56;5075354;28;20199;-77
2023/06/18 04:30:57;;;;;;;8.30;4.70;;;;;;;-145.69;nan;51882.00;5075596;28;20210;-76
2023/06/18 04:33:24;;;;;;;10.60;4.65;;;;;;;-145.69;nan;51889.91;5075453;28;20195;-76
2023/06/18 04:35:53;;;;;;;6.97;4.97;;;;;;;-145.69;nan;51895.84;5075779;28;20198;-76
2023/06/18 04:38:21;;;;;;;8.37;4.80;;;;;;;-145.69;nan;51903.78;5075300;28;20210;-78
2023/06/18 04:40:50;;;;;;;6.72;4.35;;;;;;;-145.69;nan;51937.44;5060138;28;20590;-76
2023/06/18 04:43:18;;;;;;;8.40;4.50;;;;;;;-145.69;nan;51891.88;5055575;28;20642;-77
2023/06/18 04:45:47;;;;;;;7.40;4.43;;;;;;;-145.69;nan;51889.91;5070750;28;20598;-77
2023/06/18 04:48:14;;;;;;;10.20;4.53;;;;;;;-145.69;nan;51893.88;5075033;28;20237;-75
2023/06/18 04:50:42;;;;;;;8.23;4.68;;;;;;;-145.69;nan;51899.81;5075209;28;20217;-76
2023/06/18 04:53:10;;;;;;;9.73;4.78;;;;;;;-145.69;nan;51903.78;5075197;28;20195;-76
2023/06/18 04:55:43;;;;;;;8.65;4.75;;;;;;;-145.69;nan;51885.94;5074707;28;20227;-77
2023/06/18 04:58:10;;;;;;;7.32;4.75;;;;;;;-145.69;nan;51891.88;5075321;28;20327;-76
2023/06/18 05:00:38;;;;;;;7.82;4.85;;;;;;;-145.69;nan;51905.75;5074945;28;20238;-76
2023/06/18 05:03:05;;;;;;;12.02;4.82;;;;;;;-145.69;nan;51874.06;5075226;28;20226;-76
2023/06/18 05:05:31;;;;;;;8.80;4.93;;;;;;;-145.69;nan;51882.00;5074643;28;20198;-76
2023/06/18 05:08:05;;;;;;;12.20;4.68;;;;;;;-145.69;nan;51897.84;5075064;28;20285;-76
2023/06/18 05:10:33;;;;;;;8.05;4.90;;;;;;;-145.69;nan;51909.72;5075081;28;20204;-76
2023/06/18 05:13:01;;;;;;;8.32;4.90;;;;;;;-145.69;nan;51885.94;5074540;28;20194;-77
2023/06/18 05:15:27;;;;;;;9.80;4.75;;;;;;;-145.69;nan;51909.72;5074508;28;20676;-77
2023/06/18 05:17:54;;;;;;;8.77;4.72;;;;;;;-145.69;nan;51858.22;5074793;28;20194;-77
2023/06/18 05:20:22;;;;;;;7.50;4.47;;;;;;;-145.69;nan;51901.78;5074684;28;20235;-77
2023/06/18 05:22:49;;;;;;;7.13;4.88;;;;;;;-145.69;nan;51885.94;5074929;28;20217;-77
2023/06/18 05:25:16;;;;;;;7.75;4.85;;;;;;;-145.69;nan;51895.84;5073268;28;20437;-76
2023/06/18 05:27:42;;;;;;;8.68;4.65;;;;;;;-145.69;nan;51878.03;5074535;28;20650;-77
2023/06/18 05:30:11;;;;;;;9.77;5.00;;;;;;;-145.69;nan;51887.94;5074930;28;20237;-77
2023/06/18 05:32:40;;;;;;;6.68;4.60;;;;;;;-145.69;nan;51858.22;5074429;28;20209;-77
2023/06/18 05:35:10;;;;;;;7.63;4.10;;;;;;;-145.69;nan;51874.06;5074199;28;20240;-77
2023/06/18 05:37:40;;;;;;;10.18;4.63;;;;;;;-145.69;nan;51850.31;5074079;28;20679;-77
2023/06/18 05:40:08;;;;;;;7.45;4.43;;;;;;;-145.69;nan;51850.31;5074176;28;20253;-77
2023/06/18 05:42:34;;;;;;;7.97;4.80;;;;;;;-145.69;nan;51818.63;5074342;28;20202;-77
2023/06/18 05:45:01;;;;;;;8.55;4.90;;;;;;;-145.69;nan;51790.91;5073421;28;20248;-78
2023/06/18 05:47:29;;;;;;;8.82;4.43;;;;;;;-145.69;nan;51771.09;5073942;28;20222;-78
2023/06/18 05:50:00;;;;;;;9.75;4.80;;;;;;;-145.69;nan;51794.88;5074094;28;20206;-77
2023/06/18 05:52:27;;;;;;;6.18;4.18;;;;;;;-145.69;nan;51749.31;5073916;28;20206;-77
2023/06/18 05:54:53;;;;;;;5.88;3.90;;;;;;;-145.69;nan;51790.91;5074336;28;20202;-78
2023/06/18 05:57:20;;;;;;;7.47;3.67;;;;;;;-145.69;nan;51763.19;5073301;28;20596;-78
2023/06/18 05:59:48;;;;;;;7.03;4.28;;;;;;;-145.69;nan;51769.13;5073457;28;20272;-78
2023/06/18 06:02:14;;;;;;;7.35;4.15;;;;;;;-145.69;nan;51761.22;5061659;28;20194;-77
2023/06/18 06:04:42;;;;;;;7.90;3.97;;;;;;;-145.69;nan;51824.56;5073873;28;20194;-78
2023/06/18 06:07:10;;;;;;;6.55;4.43;;;;;;;-145.69;nan;51822.59;5073237;28;20225;-77
2023/06/18 06:09:38;;;;;;;6.90;4.20;;;;;;;-145.69;nan;51779.03;5073700;28;20661;-78
2023/06/18 06:12:08;;;;;;;7.78;4.45;;;;;;;-145.69;nan;51796.84;5073839;28;20603;-78
2023/06/18 06:14:37;;;;;;;6.45;4.25;;;;;;;-145.69;nan;51830.50;5073578;28;20195;-77
2023/06/18 06:17:04;;;;;;;5.72;4.18;;;;;;;-145.69;nan;51783.00;5073236;28;20203;-78
2023/06/18 06:19:31;;;;;;;7.60;3.97;;;;;;;-145.69;nan;51786.94;5073454;28;20654;-78
2023/06/18 06:21:58;;;;;;;5.88;4.10;;;;;;;-145.69;nan;51820.59;5073514;28;20229;-78
2023/06/18 06:24:25;;;;;;;6.55;4.55;;;;;;;-145.69;nan;51806.75;5073176;28;20290;-78
2023/06/18 06:26:52;;;;;;;7.30;3.88;;;;;;;-145.69;nan;51757.25;5073500;28;20290;-77
2023/06/18 06:29:21;;;;;;;7.50;4.50;;;;;;;-145.69;nan;51779.03;5073550;28;20228;-78
2023/06/18 06:31:49;;;;;;;7.07;4.47;;;;;;;-145.69;nan;51779.03;5073326;28;20683;-78
2023/06/18 06:34:19;;;;;;;8.05;4.78;;;;;;;-145.69;nan;51790.91;5072705;28;20203;-76
2023/06/18 06:36:46;;;;;;;9.80;4.28;;;;;;;-145.69;nan;51800.81;5072748;28;20783;-76
2023/06/18 06:39:16;;;;;;;8.18;4.60;;;;;;;-145.69;nan;51779.03;5068763;28;20195;-75
2023/06/18 06:41:42;;;;;;;8.10;4.88;;;;;;;-145.69;nan;51790.91;5056672;28;20588;-75
2023/06/18 06:44:09;;;;;;;10.25;4.30;;;;;;;-145.69;nan;51790.91;5073101;28;20203;-76
2023/06/18 06:46:44;;;;;;;6.88;4.38;;;;;;;-145.69;nan;51779.03;5073149;28;20272;-75
2023/06/18 06:49:13;;;;;;;7.90;4.00;;;;;;;-145.69;nan;51784.97;5072677;28;20234;-75
2023/06/18 06:51:39;;;;;;;7.13;3.97;;;;;;;-145.69;nan;51765.16;5072968;28;20238;-75
2023/06/18 06:54:06;;;;;;;5.63;3.97;;;;;;;-145.69;nan;51749.31;5073122;28;20680;-75
2023/06/18 06:56:34;;;;;;;8.07;4.10;;;;;;;-145.69;nan;51767.16;5072776;28;20286;-75
2023/06/18 06:59:00;;;;;;;6.53;3.75;;;;;;;-145.69;nan;51759.22;5072567;28;20191;-75
2023/06/18 07:01:28;;;;;;;8.48;4.10;;;;;;;-145.69;nan;51759.22;5072588;28;20228;-75
2023/06/18 07:03:57;;;;;;;8.45;4.50;;;;;;;-145.69;nan;51733.50;5072565;28;20195;-75
2023/06/18 07:06:24;;;;;;;7.28;4.10;;;;;;;-145.69;nan;51755.25;5072743;28;20285;-75
2023/06/18 07:08:51;;;;;;;6.57;4.03;;;;;;;-145.69;nan;51721.59;5071975;28;20612;-75
2023/06/18 07:11:21;;;;;;;7.60;4.40;;;;;;;-145.69;nan;51731.50;5072424;28;20206;-75
2023/06/18 07:13:49;;;;;;;10.80;4.53;;;;;;;-145.69;nan;51739.44;5072878;28;20204;-76
2023/06/18 07:16:15;;;;;;;8.98;4.28;;;;;;;-145.69;nan;51715.66;5072517;28;20676;-75
2023/06/18 07:18:43;;;;;;;7.85;4.22;;;;;;;-145.69;nan;51749.31;5072752;28;20207;-75
2023/06/18 07:21:09;;;;;;;8.77;4.78;;;;;;;-145.69;nan;51741.41;5072712;28;20233;-75
2023/06/18 07:23:36;;;;;;;6.93;4.85;;;;;;;-145.69;nan;51701.81;5072917;28;20255;-75
2023/06/18 07:26:02;;;;;;;5.82;4.35;;;;;;;-145.69;nan;51703.78;5072800;28;20207;-75
2023/06/18 07:28:29;;;;;;;10.05;4.28;;;;;;;-145.69;nan;51725.56;5071367;28;20244;-76
2023/06/18 07:30:56;;;;;;;8.85;4.68;;;;;;;-145.69;nan;51723.59;5072378;28;20202;-75
2023/06/18 07:33:23;;;;;;;8.32;4.15;;;;;;;-145.69;nan;51705.75;5072456;28;20244;-75
2023/06/18 07:35:49;;;;;;;7.97;4.40;;;;;;;-145.69;nan;51711.72;5072586;28;20206;-76
2023/06/18 07:38:16;;;;;;;7.15;4.30;;;;;;;-145.69;nan;51707.75;5072528;28;20256;-76
2023/06/18 07:40:45;;;;;;;7.80;4.22;;;;;;;-145.69;nan;51727.53;5072540;28;20317;-77
2023/06/18 07:43:12;;;;;;;5.72;4.10;;;;;;;-145.69;nan;51731.50;5071953;28;20212;-76
2023/06/18 07:45:41;;;;;;;6.72;3.92;;;;;;;-145.69;nan;51731.50;5072631;28;20206;-76
2023/06/18 07:48:10;;;;;;;6.90;4.53;;;;;;;-145.69;nan;51695.88;5072170;28;20237;-76
2023/06/18 07:50:37;;;;;;;6.10;4.05;;;;;;;-145.69;nan;51723.59;5072532;28;20209;-76
2023/06/18 07:53:04;;;;;;;9.27;4.22;;;;;;;-145.69;nan;51717.66;5072578;28;20203;-76
2023/06/18 07:55:31;;;;;;;6.90;4.38;;;;;;;-145.69;nan;51697.84;5071743;28;20195;-76
2023/06/18 07:57:57;;;;;;;8.25;4.80;;;;;;;-145.69;nan;51731.50;5072515;28;20745;-76
2023/06/18 08:00:26;;;;;;;6.25;4.45;;;;;;;-145.69;nan;51707.75;5072167;28;20616;-76
2023/06/18 08:02:53;;;;;;;7.47;4.05;;;;;;;-145.69;nan;51717.66;5072240;28;20229;-76
2023/06/18 08:05:26;;;;;;;8.77;4.25;;;;;;;-145.69;nan;51695.88;5070849;28;20195;-77
2023/06/18 08:07:53;;;;;;;4.95;3.80;;;;;;;-145.69;nan;51701.81;5072090;28;20672;-77
2023/06/18 08:10:22;;;;;;;6.72;4.30;;;;;;;-145.69;nan;51672.09;5071861;28;20265;-77
2023/06/18 08:12:49;;;;;;;9.65;4.47;;;;;;;-145.69;nan;51715.66;5072242;28;20256;-76
2023/06/18 08:15:16;;;;;;;6.30;4.50;;;;;;;-145.69;nan;51697.84;5072082;28;20582;-77
2023/06/18 08:17:44;;;;;;;5.93;4.28;;;;;;;-145.69;nan;51672.09;5072370;28;20203;-77
2023/06/18 08:20:11;;;;;;;5.97;4.47;;;;;;;-145.69;nan;51719.63;5074856;28;20626;-76
2023/06/18 08:22:39;;;;;;;8.02;4.28;;;;;;;-145.69;nan;51691.91;5075554;28;20202;-76
2023/06/18 08:25:08;;;;;;;12.27;4.15;;;;;;;-145.69;nan;51703.78;5075614;28;20653;-76
2023/06/18 08:27:35;;;;;;;6.88;4.53;;;;;;;-145.69;nan;51711.72;5076112;28;20248;-76
2023/06/18 08:30:06;;;;;;;7.25;4.50;;;;;;;-145.69;nan;51721.59;5075786;28;20301;-76
2023/06/18 08:32:38;;;;;;;8.07;4.63;;;;;;;-145.69;nan;51717.66;5075624;28;20202;-76
2023/06/18 08:35:07;;;;;;;6.70;4.68;;;;;;;-145.69;nan;51711.72;5075049;28;20194;-77
2023/06/18 08:37:40;;;;;;;7.40;4.20;;;;;;;-145.69;nan;51715.66;5075397;28;20199;-76
2023/06/18 08:40:20;;;;;;;7.00;4.25;;;;;;;-145.69;nan;51691.91;5075678;28;20203;-76
2023/06/18 08:42:47;;;;;;;10.20;4.18;;;;;;;-145.69;nan;51689.94;5075631;28;20287;-76
2023/06/18 08:45:13;;;;;;;7.07;4.47;;;;;;;-145.69;nan;51697.84;5075518;28;20198;-76
2023/06/18 08:47:42;;;;;;;9.73;4.25;;;;;;;-145.69;nan;51715.66;5075247;28;20241;-76
2023/06/18 08:50:13;;;;;;;7.38;4.30;;;;;;;-145.69;nan;51711.72;5065054;28;20211;-76
2023/06/18 08:52:43;;;;;;;6.07;4.25;;;;;;;-145.69;nan;51678.03;5071708;28;20562;-76
2023/06/18 08:55:14;;;;;;;8.88;4.68;;;;;;;-145.69;nan;51693.88;5075275;28;20205;-76
2023/06/18 08:57:48;;;;;;;6.85;4.88;;;;;;;-145.69;nan;51703.78;5075388;28;20207;-76
2023/06/18 09:00:17;;;;;;;7.47;4.45;;;;;;;-145.69;nan;51699.81;5075364;28;20253;-77
2023/06/18 09:02:44;;;;;;;6.85;4.47;;;;;;;-145.69;nan;51699.81;5074817;28;20684;-77
2023/06/18 09:05:11;;;;;;;9.38;4.05;;;;;;;-145.69;nan;51670.13;5074924;28;20206;-77
2023/06/18 09:07:40;;;;;;;6.70;3.83;;;;;;;-145.69;nan;51703.78;5075399;28;20248;-77
2023/06/18 09:10:10;;;;;;;8.75;4.95;;;;;;;-145.69;nan;51711.72;5074744;28;20294;-76
2023/06/18 09:12:38;;;;;;;6.78;4.60;;;;;;;-145.69;nan;51689.94;5074544;28;20657;-76
2023/06/18 09:15:07;;;;;;;9.07;4.35;;;;;;;-145.69;nan;51683.97;5075199;28;20234;-77
2023/06/18 09:17:35;;;;;;;6.28;4.20;;;;;;;-145.69;nan;51687.94;5074934;28;20289;-79
2023/06/18 09:20:07;;;;;;;6.03;4.05;;;;;;;-145.69;nan;51707.75;5074552;28;20210;-78
2023/06/18 09:22:44;;;;;;;9.88;4.40;;;;;;;-145.69;nan;51705.75;5074793;28;20284;-81
2023/06/18 09:25:12;;;;;;;7.65;4.60;;;;;;;-145.69;nan;51680.03;5054612;28;20199;-80
2023/06/18 09:27:43;;;;;;;6.35;4.40;;;;;;;-145.69;nan;51689.94;5054734;28;20651;-79
2023/06/18 09:30:19;;;;;;;8.18;4.82;;;;;;;-145.69;nan;51723.59;5054101;28;20565;-79
2023/06/18 09:32:46;;;;;;;5.88;4.00;;;;;;;-145.69;nan;51703.78;5054838;28;20195;-79
2023/06/18 09:35:17;;;;;;;6.18;4.50;;;;;;;-145.69;nan;51711.72;5062146;28;20261;-78
2023/06/18 09:37:44;;;;;;;10.77;5.03;;;;;;;-145.69;nan;51644.38;5073981;28;20661;-78
2023/06/18 09:40:15;;;;;;;6.55;3.80;;;;;;;-145.69;nan;51678.03;5054383;28;20206;-77
2023/06/18 09:42:44;;;;;;;6.95;4.13;;;;;;;-145.69;nan;51697.84;5054185;28;20227;-77
2023/06/18 09:45:11;;;;;;;7.68;4.55;;;;;;;-145.69;nan;51680.03;5054345;28;20253;-79
2023/06/18 09:47:38;;;;;;;10.05;4.55;;;;;;;-145.69;nan;51697.84;5054391;28;21116;-79
2023/06/18 09:50:10;;;;;;;8.40;4.38;;;;;;;-145.69;nan;51648.34;5061308;28;20241;-78
2023/06/18 09:52:42;;;;;;;11.35;4.40;;;;;;;-145.69;nan;51697.84;5074708;28;20209;-78
2023/06/18 09:55:27;;;;;;;6.80;4.32;;;;;;;-145.69;nan;51666.16;5073914;28;20726;-79
2023/06/18 09:57:54;;;;;;;6.20;4.40;;;;;;;-145.69;nan;51683.97;5073447;28;20248;-79
2023/06/18 10:00:22;;;;;;;10.15;4.50;;;;;;;-145.69;nan;51680.03;5073693;28;20645;-78
2023/06/18 10:02:51;;;;;;;7.63;4.28;;;;;;;-145.69;nan;51668.16;5073537;28;20846;-79
2023/06/18 10:05:17;;;;;;;7.68;4.35;;;;;;;-145.69;nan;51682.00;5073500;28;20186;-79
2023/06/18 10:07:44;;;;;;;9.98;4.47;;;;;;;-145.69;nan;51652.31;5073723;28;20202;-79
2023/06/18 10:10:14;;;;;;;8.15;4.72;;;;;;;-145.69;nan;51693.88;5073816;28;20557;-79
2023/06/18 10:12:43;;;;;;;5.72;3.65;;;;;;;-145.69;nan;51680.03;5073901;28;20260;-78
2023/06/18 10:15:21;;;;;;;6.97;3.97;;;;;;;-145.69;nan;51666.16;5073311;28;20248;-79
2023/06/18 10:17:51;;;;;;;9.20;3.85;;;;;;;-145.69;nan;51672.09;5073634;28;20205;-78
2023/06/18 10:20:27;;;;;;;10.13;4.45;;;;;;;-145.69;nan;51674.09;5073168;28;20616;-78
2023/06/18 10:22:58;;;;;;;6.63;4.40;;;;;;;-145.69;nan;51660.22;5073264;28;20267;-78
2023/06/18 10:25:26;;;;;;;8.75;4.10;;;;;;;-145.69;nan;51668.16;5073966;28;20206;-81
2023/06/18 10:27:53;;;;;;;7.10;4.35;;;;;;;-145.69;nan;51674.09;5073772;28;20207;-77
2023/06/18 10:30:21;;;;;;;10.32;4.53;;;;;;;-145.69;nan;51658.25;5073251;28;20289;-78
2023/06/18 10:32:48;;;;;;;5.80;4.00;;;;;;;-145.69;nan;51658.25;5073101;28;20685;-78
2023/06/18 10:35:15;;;;;;;9.90;4.32;;;;;;;-145.69;nan;51683.97;5063202;28;20195;-77
2023/06/18 10:37:45;;;;;;;5.75;4.18;;;;;;;-145.69;nan;51683.97;5072870;28;20206;-77
2023/06/18 10:40:13;;;;;;;10.77;4.50;;;;;;;-145.69;nan;51638.44;5072882;28;20195;-79
2023/06/18 10:42:40;;;;;;;6.93;4.72;;;;;;;-145.69;nan;51660.22;5072800;28;20461;-79
2023/06/18 10:45:11;;;;;;;9.00;4.80;;;;;;;-145.69;nan;51656.25;5073095;28;20211;-79
2023/06/18 10:47:40;;;;;;;8.77;4.47;;;;;;;-145.69;nan;51676.06;5073012;28;21719;-80
2023/06/18 10:50:15;;;;;;;10.65;4.40;;;;;;;-145.69;nan;51680.03;5072712;28;20268;-78
2023/06/18 10:52:43;;;;;;;8.38;4.70;;;;;;;-145.69;nan;51668.16;5072274;28;20553;-79
2023/06/18 10:55:11;;;;;;;6.03;4.25;;;;;;;-145.69;nan;51670.13;5073223;28;20218;-79
2023/06/18 10:57:39;;;;;;;10.93;4.47;;;;;;;-145.69;nan;51646.38;5073307;28;20206;-78
2023/06/18 11:00:17;;;;;;;7.75;4.60;;;;;;;-145.69;nan;51652.31;5070105;28;20199;-79
2023/06/18 11:02:46;;;;;;;8.23;4.40;;;;;;;-145.69;nan;51652.31;5073000;28;20229;-80
2023/06/18 11:05:39;;;;;;;6.85;4.63;;;;;;;-145.69;nan;51650.31;5072430;28;20195;-81
2023/06/18 11:08:07;;;;;;;7.28;4.70;;;;;;;-145.69;nan;51648.34;5072838;28;20662;-81
2023/06/18 11:10:35;;;;;;;7.57;4.40;;;;;;;-145.69;nan;51616.66;5072740;28;20653;-81
2023/06/18 11:13:05;;;;;;;5.53;4.18;;;;;;;-145.69;nan;51644.38;5072554;28;20199;-82
2023/06/18 11:15:34;;;;;;;7.10;4.90;;;;;;;-145.69;nan;51638.44;5052398;28;20471;-79
2023/06/18 11:18:03;;;;;;;8.45;4.47;;;;;;;-145.69;nan;51652.31;5054723;28;20666;-80
2023/06/18 11:20:31;;;;;;;5.70;4.25;;;;;;;-145.69;nan;51662.22;5072794;28;20198;-79
2023/06/18 11:23:01;;;;;;;11.63;4.75;;;;;;;-145.69;nan;51630.53;5072867;28;20232;-78
2023/06/18 11:25:29;;;;;;;6.40;4.50;;;;;;;-145.69;nan;51636.47;5072603;28;20225;-80
2023/06/18 11:27:58;;;;;;;6.40;4.07;;;;;;;-145.69;nan;51616.66;5072312;28;20205;-80
2023/06/18 11:30:25;;;;;;;7.57;4.65;;;;;;;-145.69;nan;51612.72;5072491;28;20207;-80
2023/06/18 11:32:51;;;;;;;10.48;4.90;;;;;;;-145.69;nan;51616.66;5072666;28;20221;-80
2023/06/18 11:35:19;;;;;;;6.35;4.15;;;;;;;-145.69;nan;51604.78;5072405;28;20187;-80
2023/06/18 11:37:48;;;;;;;5.80;4.32;;;;;;;-145.69;nan;51616.66;5072692;28;20206;-80